Time;durP1;ratioP1;P1;durP2;ratioP2;P2;SDS_P1;SDS_P2;PMS_P1;PMS_P2;Temp;Humidity;BMP_temperature;BMP_pressure;BME280_temperature;BME280_humidity;BME280_pressure;Samples;Min_cycle;Max_cycle;Signal;HPM_P1;HPM_P2
2023/12/28 00:01:25;;;;;;;6.20;3.30;;;;;;;;;;5063130;28;20816;-78
2023/12/28 00:03:51;;;;;;;6.80;3.80;;;;;;;;;;5076699;28;20391;-78
2023/12/28 00:06:17;;;;;;;7.93;3.55;;;;;;;;;;5063424;28;20408;-82
2023/12/28 00:08:43;;;;;;;7.15;3.30;;;;;;;;;;5055897;28;20404;-82
2023/12/28 00:11:09;;;;;;;5.20;3.30;;;;;;;;;;5064562;28;20457;-82
2023/12/28 00:13:36;;;;;;;6.57;3.67;;;;;;;;;;5057984;28;22179;-81
2023/12/28 00:16:02;;;;;;;8.18;3.65;;;;;;;;;;5069725;28;20428;-81
2023/12/28 00:18:28;;;;;;;6.40;3.70;;;;;;;;;;5073266;28;20496;-81
2023/12/28 00:20:54;;;;;;;6.63;3.78;;;;;;;;;;5115660;27;20400;-81
2023/12/28 00:23:20;;;;;;;5.35;3.60;;;;;;;;;;5073902;28;20477;-81
2023/12/28 00:25:46;;;;;;;6.60;3.80;;;;;;;;;;5117863;27;20404;-80
2023/12/28 00:28:12;;;;;;;6.90;3.95;;;;;;;;;;5085724;28;20431;-81
2023/12/28 00:30:38;;;;;;;7.10;3.83;;;;;;;;;;5080718;28;20396;-80
2023/12/28 00:33:04;;;;;;;7.90;4.07;;;;;;;;;;5106307;28;20394;-80
2023/12/28 00:35:30;;;;;;;6.90;3.93;;;;;;;;;;5074088;28;20429;-81
2023/12/28 00:37:56;;;;;;;8.98;4.05;;;;;;;;;;5086272;28;20431;-80
2023/12/28 00:40:23;;;;;;;18.67;4.25;;;;;;;;;;5080397;28;20405;-80
2023/12/28 00:42:49;;;;;;;8.10;3.92;;;;;;;;;;5073813;28;20405;-80
2023/12/28 00:45:15;;;;;;;8.45;4.20;;;;;;;;;;5080452;28;20490;-80
2023/12/28 00:47:43;;;;;;;8.60;4.28;;;;;;;;;;5088348;28;20500;-80
2023/12/28 00:50:11;;;;;;;8.23;3.85;;;;;;;;;;5074110;28;20405;-81
2023/12/28 00:52:37;;;;;;;8.43;3.83;;;;;;;;;;5079484;28;20406;-81
2023/12/28 00:55:04;;;;;;;8.25;3.55;;;;;;;;;;5091327;28;20414;-80
2023/12/28 00:57:30;;;;;;;8.68;3.90;;;;;;;;;;5056593;28;20398;-80
2023/12/28 00:59:56;;;;;;;8.50;4.37;;;;;;;;;;5091670;28;20407;-81
2023/12/28 01:02:22;;;;;;;10.73;4.13;;;;;;;;;;5067070;28;20428;-81
2023/12/28 01:04:48;;;;;;;11.07;3.70;;;;;;;;;;5091049;28;20398;-81
2023/12/28 01:07:14;;;;;;;11.88;3.97;;;;;;;;;;5088987;28;20394;-80
2023/12/28 01:09:40;;;;;;;11.40;4.23;;;;;;;;;;5073322;28;20906;-80
2023/12/28 01:12:07;;;;;;;7.20;3.55;;;;;;;;;;5125207;27;20441;-81
2023/12/28 01:14:33;;;;;;;10.00;3.75;;;;;;;;;;5073077;28;20400;-80
2023/12/28 01:16:59;;;;;;;10.05;3.88;;;;;;;;;;5107817;27;20556;-81
2023/12/28 01:19:25;;;;;;;10.48;3.85;;;;;;;;;;5104424;27;20465;-81
2023/12/28 01:21:51;;;;;;;9.33;4.17;;;;;;;;;;5115282;27;20833;-81
2023/12/28 01:24:17;;;;;;;10.55;3.92;;;;;;;;;;5097993;28;20393;-81
2023/12/28 01:26:43;;;;;;;9.68;4.25;;;;;;;;;;5073388;28;20528;-81
2023/12/28 01:29:09;;;;;;;12.15;4.20;;;;;;;;;;5055799;28;20407;-80
2023/12/28 01:31:35;;;;;;;12.40;3.97;;;;;;;;;;5070973;28;20958;-80
2023/12/28 01:34:02;;;;;;;8.57;3.90;;;;;;;;;;5061612;28;20779;-80
2023/12/28 01:36:29;;;;;;;9.55;4.50;;;;;;;;;;5073690;28;20467;-80
2023/12/28 01:38:55;;;;;;;9.32;4.13;;;;;;;;;;5122189;27;20394;-80
2023/12/28 01:41:22;;;;;;;10.68;4.10;;;;;;;;;;5090864;28;20531;-80
2023/12/28 01:43:48;;;;;;;10.27;3.92;;;;;;;;;;5069780;28;20396;-81
2023/12/28 01:46:17;;;;;;;9.57;3.50;;;;;;;;;;5090727;28;20481;-81
2023/12/28 01:48:44;;;;;;;11.02;3.78;;;;;;;;;;5072469;28;20781;-80
2023/12/28 01:51:10;;;;;;;12.77;4.07;;;;;;;;;;5072752;28;20817;-80
2023/12/28 01:53:37;;;;;;;11.60;3.75;;;;;;;;;;5106644;28;20408;-81
2023/12/28 01:56:03;;;;;;;8.35;3.50;;;;;;;;;;5089783;28;20422;-80
2023/12/28 01:58:30;;;;;;;11.70;4.03;;;;;;;;;;5087307;28;20400;-81
2023/12/28 02:00:56;;;;;;;12.60;3.58;;;;;;;;;;5083313;28;20456;-81
2023/12/28 02:03:23;;;;;;;11.32;3.70;;;;;;;;;;5090192;28;20413;-80
2023/12/28 02:05:49;;;;;;;11.37;4.30;;;;;;;;;;5072513;28;20477;-80
2023/12/28 02:08:15;;;;;;;12.35;3.97;;;;;;;;;;5088221;28;20417;-81
2023/12/28 02:10:41;;;;;;;10.75;3.55;;;;;;;;;;5089187;28;20405;-80
2023/12/28 02:13:07;;;;;;;11.35;4.30;;;;;;;;;;5087237;28;20398;-81
2023/12/28 02:15:33;;;;;;;13.83;4.20;;;;;;;;;;5072650;28;20923;-81
2023/12/28 02:18:01;;;;;;;12.02;3.85;;;;;;;;;;5087051;28;20451;-81
2023/12/28 02:20:30;;;;;;;13.05;3.80;;;;;;;;;;5104160;28;20404;-81
2023/12/28 02:22:56;;;;;;;13.18;3.90;;;;;;;;;;5117495;28;20426;-81
2023/12/28 02:25:22;;;;;;;10.80;3.50;;;;;;;;;;5080551;28;20472;-81
2023/12/28 02:27:49;;;;;;;11.65;3.72;;;;;;;;;;5073788;28;20755;-81
2023/12/28 02:30:21;;;;;;;12.65;3.78;;;;;;;;;;5072875;28;20758;-82
2023/12/28 02:32:57;;;;;;;11.80;3.70;;;;;;;;;;5122876;28;20902;-82
2023/12/28 02:35:29;;;;;;;11.93;4.20;;;;;;;;;;5074426;28;20478;-81
2023/12/28 02:37:56;;;;;;;12.50;4.13;;;;;;;;;;5091286;28;20409;-82
2023/12/28 02:40:22;;;;;;;11.50;3.93;;;;;;;;;;5087582;28;20418;-82
2023/12/28 02:42:49;;;;;;;16.23;3.92;;;;;;;;;;5074908;28;20522;-82
2023/12/28 02:45:15;;;;;;;10.52;3.53;;;;;;;;;;5085686;28;20426;-81
2023/12/28 02:47:41;;;;;;;14.20;4.00;;;;;;;;;;5058888;28;20412;-82
2023/12/28 02:50:07;;;;;;;12.25;4.13;;;;;;;;;;5062242;28;20407;-82
2023/12/28 02:52:33;;;;;;;11.10;3.50;;;;;;;;;;5076447;28;20428;-81
2023/12/28 02:54:59;;;;;;;14.18;3.75;;;;;;;;;;5108505;27;20922;-82
2023/12/28 02:57:25;;;;;;;11.30;3.60;;;;;;;;;;5094407;28;20495;-81
2023/12/28 02:59:51;;;;;;;12.85;3.55;;;;;;;;;;5107427;27;20396;-81
2023/12/28 03:02:17;;;;;;;12.82;3.30;;;;;;;;;;5109913;27;20456;-81
2023/12/28 03:04:43;;;;;;;12.63;3.47;;;;;;;;;;5064047;28;20404;-80
2023/12/28 03:07:10;;;;;;;11.98;3.58;;;;;;;;;;5064281;28;20423;-80
2023/12/28 03:09:38;;;;;;;10.65;3.45;;;;;;;;;;5093282;28;20463;-80
2023/12/28 03:12:05;;;;;;;12.10;3.63;;;;;;;;;;5084244;28;20788;-79
2023/12/28 03:14:31;;;;;;;10.32;3.50;;;;;;;;;;5093403;28;20890;-80
2023/12/28 03:16:57;;;;;;;9.32;3.20;;;;;;;;;;5075525;28;20414;-80
2023/12/28 03:19:23;;;;;;;10.65;3.35;;;;;;;;;;5089260;28;20410;-82
2023/12/28 03:21:49;;;;;;;12.32;3.20;;;;;;;;;;5091622;28;20447;-81
2023/12/28 03:24:15;;;;;;;10.60;3.15;;;;;;;;;;5066706;28;20417;-80
2023/12/28 03:26:41;;;;;;;12.10;3.65;;;;;;;;;;5093243;28;20784;-80
2023/12/28 03:29:08;;;;;;;12.05;3.30;;;;;;;;;;5079510;28;20398;-80
2023/12/28 03:31:34;;;;;;;8.57;2.90;;;;;;;;;;5075608;28;20405;-80
2023/12/28 03:34:00;;;;;;;10.98;3.38;;;;;;;;;;5091455;28;20402;-81
2023/12/28 03:36:26;;;;;;;12.32;3.05;;;;;;;;;;5089478;28;20458;-81
2023/12/28 03:38:52;;;;;;;13.57;3.50;;;;;;;;;;5104382;28;20402;-78
2023/12/28 03:41:19;;;;;;;10.15;2.78;;;;;;;;;;5073666;28;20471;-78
2023/12/28 03:43:48;;;;;;;9.75;2.97;;;;;;;;;;5091820;28;20405;-78
2023/12/28 03:46:14;;;;;;;14.57;3.27;;;;;;;;;;5093268;28;20398;-78
2023/12/28 03:48:40;;;;;;;11.75;3.03;;;;;;;;;;5086539;28;20416;-78
2023/12/28 03:51:06;;;;;;;11.00;3.08;;;;;;;;;;5066925;28;20768;-78
2023/12/28 03:53:33;;;;;;;13.90;3.10;;;;;;;;;;5082451;28;20936;-77
2023/12/28 03:55:59;;;;;;;11.32;3.25;;;;;;;;;;5072186;28;20854;-78
2023/12/28 03:58:25;;;;;;;11.73;3.08;;;;;;;;;;5106608;28;20397;-78
2023/12/28 04:00:51;;;;;;;11.27;3.33;;;;;;;;;;5112674;27;20402;-78
2023/12/28 04:03:17;;;;;;;14.50;3.40;;;;;;;;;;5087172;28;20461;-78
2023/12/28 04:05:43;;;;;;;12.88;3.42;;;;;;;;;;5116151;27;20719;-78
2023/12/28 04:08:10;;;;;;;14.43;3.35;;;;;;;;;;5079340;28;20491;-78
2023/12/28 04:10:39;;;;;;;10.40;3.10;;;;;;;;;;5106335;28;20819;-78
2023/12/28 04:13:05;;;;;;;10.05;3.17;;;;;;;;;;5108391;28;20993;-78
2023/12/28 04:15:31;;;;;;;12.67;3.00;;;;;;;;;;5092468;28;20414;-78
2023/12/28 04:17:58;;;;;;;12.45;3.63;;;;;;;;;;5074409;28;20412;-78
2023/12/28 04:20:24;;;;;;;11.77;3.03;;;;;;;;;;5082211;28;20403;-78
2023/12/28 04:22:50;;;;;;;9.98;3.55;;;;;;;;;;5082360;28;20767;-78
2023/12/28 04:25:16;;;;;;;13.30;3.10;;;;;;;;;;5092019;28;20463;-78
2023/12/28 04:27:42;;;;;;;11.70;2.92;;;;;;;;;;5063636;28;20427;-78
2023/12/28 04:30:08;;;;;;;11.90;2.97;;;;;;;;;;5065942;28;20411;-78
2023/12/28 04:32:34;;;;;;;13.35;3.50;;;;;;;;;;5080212;28;20924;-79
2023/12/28 04:35:01;;;;;;;8.73;2.85;;;;;;;;;;5073775;28;20398;-78
2023/12/28 04:37:27;;;;;;;11.88;3.38;;;;;;;;;;5072399;28;20404;-78
2023/12/28 04:39:53;;;;;;;10.32;3.17;;;;;;;;;;5091339;28;20422;-77
2023/12/28 04:42:19;;;;;;;8.45;3.08;;;;;;;;;;5076123;28;20401;-78
2023/12/28 04:44:45;;;;;;;10.73;2.90;;;;;;;;;;5054193;28;20399;-79
2023/12/28 04:47:11;;;;;;;13.20;3.30;;;;;;;;;;5098292;28;20446;-78
2023/12/28 04:49:37;;;;;;;12.45;3.15;;;;;;;;;;5098718;28;20445;-78
2023/12/28 04:52:04;;;;;;;10.38;3.13;;;;;;;;;;5091637;28;20394;-78
2023/12/28 04:54:30;;;;;;;11.53;2.80;;;;;;;;;;5073323;28;20503;-78
2023/12/28 04:56:56;;;;;;;12.38;3.00;;;;;;;;;;5104180;28;20427;-78
2023/12/28 04:59:22;;;;;;;11.68;3.55;;;;;;;;;;5065604;28;20398;-79
2023/12/28 05:01:48;;;;;;;13.63;3.80;;;;;;;;;;5090221;28;20405;-79
2023/12/28 05:04:14;;;;;;;14.27;3.33;;;;;;;;;;5083089;28;20406;-79
2023/12/28 05:06:40;;;;;;;14.43;3.70;;;;;;;;;;5077530;28;20399;-79
2023/12/28 05:09:06;;;;;;;12.15;3.28;;;;;;;;;;5073377;28;20390;-79
2023/12/28 05:11:32;;;;;;;14.82;3.13;;;;;;;;;;5072571;28;20418;-79
2023/12/28 05:13:58;;;;;;;14.10;3.20;;;;;;;;;;5071488;28;20761;-79
2023/12/28 05:16:24;;;;;;;10.30;2.80;;;;;;;;;;5095576;28;20778;-80
2023/12/28 05:18:50;;;;;;;16.42;3.40;;;;;;;;;;5076558;28;20465;-79
2023/12/28 05:21:16;;;;;;;10.35;3.17;;;;;;;;;;5068600;28;20386;-79
2023/12/28 05:23:42;;;;;;;9.82;2.70;;;;;;;;;;5087451;28;20441;-79
2023/12/28 05:26:08;;;;;;;15.27;3.65;;;;;;;;;;5073072;28;20397;-79
2023/12/28 05:28:34;;;;;;;12.68;3.03;;;;;;;;;;5085445;28;20448;-79
2023/12/28 05:31:00;;;;;;;11.75;2.95;;;;;;;;;;5066645;28;20424;-79
2023/12/28 05:33:26;;;;;;;11.75;2.70;;;;;;;;;;5072480;28;20402;-79
2023/12/28 05:35:53;;;;;;;12.18;2.92;;;;;;;;;;5083880;28;20432;-79
2023/12/28 05:38:19;;;;;;;14.80;3.10;;;;;;;;;;5040414;28;20402;-79
2023/12/28 05:40:45;;;;;;;10.07;3.35;;;;;;;;;;5060393;28;20404;-78
2023/12/28 05:43:11;;;;;;;14.38;3.13;;;;;;;;;;5083803;28;20400;-78
2023/12/28 05:45:38;;;;;;;11.63;2.97;;;;;;;;;;5064690;28;20398;-78
2023/12/28 05:48:04;;;;;;;13.55;3.38;;;;;;;;;;5056168;28;20418;-78
2023/12/28 05:50:31;;;;;;;13.82;3.50;;;;;;;;;;5057977;28;20430;-79
2023/12/28 05:52:57;;;;;;;13.48;3.28;;;;;;;;;;5079975;28;20427;-78
2023/12/28 05:55:23;;;;;;;12.40;3.17;;;;;;;;;;5070884;28;20410;-78
2023/12/28 05:57:49;;;;;;;12.38;3.25;;;;;;;;;;5063901;28;20894;-78
2023/12/28 06:00:16;;;;;;;13.35;3.30;;;;;;;;;;5051768;28;20398;-78
2023/12/28 06:02:42;;;;;;;15.10;3.30;;;;;;;;;;5076128;28;20427;-78
2023/12/28 06:05:08;;;;;;;12.57;2.93;;;;;;;;;;5064962;28;20424;-78
2023/12/28 06:07:34;;;;;;;16.95;3.63;;;;;;;;;;5043824;28;20783;-79
2023/12/28 06:10:00;;;;;;;14.40;3.25;;;;;;;;;;5058779;28;20406;-78
2023/12/28 06:12:27;;;;;;;14.47;3.00;;;;;;;;;;5070315;28;20400;-79
2023/12/28 06:14:53;;;;;;;15.50;3.42;;;;;;;;;;5080645;28;20400;-78
2023/12/28 06:17:19;;;;;;;16.35;3.28;;;;;;;;;;5085150;28;20432;-78
2023/12/28 06:19:45;;;;;;;13.90;2.88;;;;;;;;;;5089113;28;20406;-78
2023/12/28 06:22:11;;;;;;;15.00;3.13;;;;;;;;;;5077179;28;20514;-78
2023/12/28 06:24:40;;;;;;;15.70;3.63;;;;;;;;;;5070413;28;20480;-78
2023/12/28 06:27:06;;;;;;;18.17;3.75;;;;;;;;;;5081726;28;20427;-78
2023/12/28 06:29:32;;;;;;;12.70;2.95;;;;;;;;;;5107919;28;20920;-79
2023/12/28 06:31:58;;;;;;;16.75;3.50;;;;;;;;;;5071125;28;20895;-79
2023/12/28 06:34:25;;;;;;;16.10;3.75;;;;;;;;;;5078518;28;20400;-79
2023/12/28 06:36:51;;;;;;;18.95;3.90;;;;;;;;;;5063239;28;20424;-79
2023/12/28 06:39:17;;;;;;;17.25;3.60;;;;;;;;;;5064322;28;20913;-79
2023/12/28 06:41:47;;;;;;;15.80;3.67;;;;;;;;;;5100784;28;20423;-79
2023/12/28 06:44:14;;;;;;;12.77;2.97;;;;;;;;;;5072241;28;20455;-77
2023/12/28 06:46:40;;;;;;;17.52;3.50;;;;;;;;;;5101784;28;20431;-78
2023/12/28 06:49:06;;;;;;;13.93;3.25;;;;;;;;;;5063371;28;20432;-78
2023/12/28 06:51:33;;;;;;;16.00;3.33;;;;;;;;;;5085973;28;20399;-78
2023/12/28 06:53:59;;;;;;;13.93;3.42;;;;;;;;;;5088099;28;20407;-79
2023/12/28 06:56:25;;;;;;;17.08;3.65;;;;;;;;;;5088843;28;20433;-78
2023/12/28 06:58:52;;;;;;;15.38;2.83;;;;;;;;;;5116995;28;20433;-79
2023/12/28 07:01:18;;;;;;;13.75;3.10;;;;;;;;;;5069374;28;20403;-79
2023/12/28 07:03:44;;;;;;;15.45;3.22;;;;;;;;;;5071743;28;20448;-78
2023/12/28 07:06:10;;;;;;;13.70;3.53;;;;;;;;;;5074096;28;20405;-79
2023/12/28 07:08:37;;;;;;;13.90;3.10;;;;;;;;;;5087411;28;20579;-79
2023/12/28 07:11:03;;;;;;;17.83;3.88;;;;;;;;;;5073130;28;20491;-79
2023/12/28 07:13:29;;;;;;;17.43;3.47;;;;;;;;;;5070822;28;20450;-79
2023/12/28 07:15:55;;;;;;;16.98;4.00;;;;;;;;;;5071657;28;20484;-79
2023/12/28 07:18:21;;;;;;;17.63;3.72;;;;;;;;;;5062926;28;20925;-80
2023/12/28 07:20:48;;;;;;;15.55;3.90;;;;;;;;;;5039644;28;20469;-80
2023/12/28 07:23:14;;;;;;;19.98;3.88;;;;;;;;;;5073644;28;20918;-80
2023/12/28 07:25:41;;;;;;;17.30;3.80;;;;;;;;;;5055616;28;20828;-80
2023/12/28 07:28:07;;;;;;;17.83;3.78;;;;;;;;;;5078021;28;20411;-79
2023/12/28 07:30:33;;;;;;;19.70;3.77;;;;;;;;;;5071571;28;20471;-80
2023/12/28 07:32:59;;;;;;;19.73;4.05;;;;;;;;;;5078551;28;20406;-79
2023/12/28 07:35:26;;;;;;;13.02;3.80;;;;;;;;;;5059202;28;20422;-79
2023/12/28 07:37:52;;;;;;;21.65;3.70;;;;;;;;;;5058606;28;20745;-79
2023/12/28 07:40:18;;;;;;;21.73;4.13;;;;;;;;;;5074361;28;20469;-80
2023/12/28 07:42:44;;;;;;;19.65;3.75;;;;;;;;;;5056224;28;20469;-80
2023/12/28 07:45:10;;;;;;;18.40;3.80;;;;;;;;;;5064582;28;20403;-80
2023/12/28 07:47:36;;;;;;;21.75;3.92;;;;;;;;;;5076684;28;20440;-79
2023/12/28 07:50:02;;;;;;;17.23;3.80;;;;;;;;;;5064974;28;20394;-80
2023/12/28 07:52:29;;;;;;;20.40;4.50;;;;;;;;;;5063959;28;20820;-81
2023/12/28 07:54:59;;;;;;;18.80;4.00;;;;;;;;;;5064791;28;20472;-81
2023/12/28 07:57:25;;;;;;;17.95;4.32;;;;;;;;;;5078603;28;20414;-81
2023/12/28 07:59:51;;;;;;;21.98;4.07;;;;;;;;;;5070875;28;20425;-81
2023/12/28 08:02:17;;;;;;;17.83;4.18;;;;;;;;;;5060238;28;20409;-81
2023/12/28 08:04:43;;;;;;;19.98;3.90;;;;;;;;;;5074233;28;20402;-81
2023/12/28 08:07:09;;;;;;;18.88;3.70;;;;;;;;;;5069296;28;20404;-81
2023/12/28 08:09:37;;;;;;;19.40;4.13;;;;;;;;;;5031461;28;21295;-81
2023/12/28 08:12:04;;;;;;;21.30;4.47;;;;;;;;;;5074291;28;20410;-81
2023/12/28 08:14:31;;;;;;;21.65;4.53;;;;;;;;;;5071432;28;20489;-82
2023/12/28 08:16:57;;;;;;;21.13;4.40;;;;;;;;;;5070155;28;20420;-82
2023/12/28 08:19:29;;;;;;;29.58;4.82;;;;;;;;;;5074195;28;20904;-81
2023/12/28 08:22:10;;;;;;;24.48;4.47;;;;;;;;;;5068817;28;20388;-82
2023/12/28 08:24:36;;;;;;;24.48;4.57;;;;;;;;;;5104573;28;22682;-82
2023/12/28 08:27:02;;;;;;;23.83;5.03;;;;;;;;;;5072917;28;20447;-83
2023/12/28 08:29:29;;;;;;;20.48;4.28;;;;;;;;;;5078697;28;20427;-83
2023/12/28 08:31:55;;;;;;;26.42;4.43;;;;;;;;;;5075589;28;20412;-83
2023/12/28 08:34:21;;;;;;;24.00;4.55;;;;;;;;;;5055602;28;20404;-82
2023/12/28 08:36:47;;;;;;;22.73;4.15;;;;;;;;;;5072625;28;20419;-83
2023/12/28 08:39:14;;;;;;;20.15;4.43;;;;;;;;;;5069641;28;20394;-81
2023/12/28 08:41:42;;;;;;;23.52;4.47;;;;;;;;;;5074048;28;20870;-82
2023/12/28 08:44:08;;;;;;;24.67;5.15;;;;;;;;;;5090729;28;20404;-82
2023/12/28 08:46:34;;;;;;;24.40;4.70;;;;;;;;;;5119820;27;20683;-82
2023/12/28 08:49:01;;;;;;;30.95;4.55;;;;;;;;;;5061495;28;20730;-82
2023/12/28 08:51:27;;;;;;;25.15;5.05;;;;;;;;;;5057613;28;20451;-82
2023/12/28 08:53:53;;;;;;;24.33;5.22;;;;;;;;;;5108618;27;20398;-79
2023/12/28 08:56:20;;;;;;;24.85;4.50;;;;;;;;;;5108174;28;20491;-80
2023/12/28 08:58:47;;;;;;;24.60;4.65;;;;;;;;;;5087145;28;20423;-79
2023/12/28 09:01:23;;;;;;;30.05;5.68;;;;;;;;;;5090193;28;20424;-80
2023/12/28 09:03:54;;;;;;;26.85;5.05;;;;;;;;;;5104679;27;20413;-81
2023/12/28 09:06:20;;;;;;;24.05;4.32;;;;;;;;;;5092772;28;20451;-77
2023/12/28 09:08:48;;;;;;;25.77;4.85;;;;;;;;;;5098829;28;20419;-79
2023/12/28 09:11:14;;;;;;;25.40;5.72;;;;;;;;;;5081204;28;20759;-79
2023/12/28 09:13:41;;;;;;;21.35;5.20;;;;;;;;;;5074010;28;20749;-80
2023/12/28 09:16:14;;;;;;;24.52;5.00;;;;;;;;;;5073901;28;20422;-79
2023/12/28 09:18:40;;;;;;;23.63;4.65;;;;;;;;;;5106651;28;20925;-79
2023/12/28 09:21:07;;;;;;;24.13;4.60;;;;;;;;;;5102158;28;20805;-81
2023/12/28 09:23:33;;;;;;;25.00;4.65;;;;;;;;;;5071190;28;20394;-81
2023/12/28 09:26:00;;;;;;;21.23;4.53;;;;;;;;;;5107941;28;20416;-81
2023/12/28 09:28:26;;;;;;;23.70;4.72;;;;;;;;;;5083427;28;20409;-88
2023/12/28 09:30:52;;;;;;;25.83;4.53;;;;;;;;;;5067722;28;20410;-80
2023/12/28 09:33:19;;;;;;;22.63;4.30;;;;;;;;;;5063758;28;20415;-81
2023/12/28 09:35:45;;;;;;;27.80;4.65;;;;;;;;;;5081997;28;20810;-80
2023/12/28 09:38:11;;;;;;;25.58;4.28;;;;;;;;;;5091716;28;20419;-79
2023/12/28 09:40:37;;;;;;;25.25;4.57;;;;;;;;;;5059192;28;20774;-79
2023/12/28 09:43:14;;;;;;;23.10;5.47;;;;;;;;;;5097794;28;20401;-82
2023/12/28 09:45:40;;;;;;;24.37;4.83;;;;;;;;;;5098254;28;20432;-80
2023/12/28 09:48:06;;;;;;;29.67;4.88;;;;;;;;;;5076080;28;20481;-80
2023/12/28 09:50:35;;;;;;;27.07;5.50;;;;;;;;;;5096821;28;20398;-80
2023/12/28 09:53:01;;;;;;;23.65;4.82;;;;;;;;;;5086177;28;20404;-81
2023/12/28 09:55:27;;;;;;;26.30;5.05;;;;;;;;;;5079772;28;20417;-80
2023/12/28 09:57:55;;;;;;;20.92;4.60;;;;;;;;;;5077342;28;20466;-90
2023/12/28 10:00:21;;;;;;;22.70;5.03;;;;;;;;;;5075223;28;20471;-84
2023/12/28 10:02:47;;;;;;;23.73;4.20;;;;;;;;;;5067430;28;20747;-84
2023/12/28 10:05:17;;;;;;;24.85;4.97;;;;;;;;;;5084386;28;20488;-84
2023/12/28 10:07:44;;;;;;;31.73;6.33;;;;;;;;;;5082902;28;20439;-84
2023/12/28 10:10:10;;;;;;;22.77;4.90;;;;;;;;;;5080420;28;20528;-83
2023/12/28 10:12:37;;;;;;;22.98;4.22;;;;;;;;;;5089057;28;20413;-83
2023/12/28 10:15:06;;;;;;;23.45;4.38;;;;;;;;;;5088773;28;20419;-86
2023/12/28 10:17:34;;;;;;;22.05;4.75;;;;;;;;;;5090555;28;20424;-84
2023/12/28 10:20:09;;;;;;;19.83;4.07;;;;;;;;;;5101494;28;20503;-85
2023/12/28 10:22:35;;;;;;;21.75;4.32;;;;;;;;;;5085864;28;20466;-85
2023/12/28 10:25:03;;;;;;;19.95;4.43;;;;;;;;;;5120945;28;20894;-85
2023/12/28 10:27:29;;;;;;;19.00;4.30;;;;;;;;;;5087942;28;20473;-85
2023/12/28 10:29:58;;;;;;;21.73;4.30;;;;;;;;;;5099080;28;20411;-84
2023/12/28 10:32:24;;;;;;;24.23;4.93;;;;;;;;;;5091148;28;20474;-85
2023/12/28 10:34:53;;;;;;;18.38;4.28;;;;;;;;;;5088068;28;20409;-85
2023/12/28 10:37:20;;;;;;;22.48;4.60;;;;;;;;;;5050209;28;20567;-85
2023/12/28 10:39:49;;;;;;;20.25;4.75;;;;;;;;;;5092602;28;20438;-84
2023/12/28 10:42:26;;;;;;;23.05;4.65;;;;;;;;;;5074031;28;20408;-83
2023/12/28 10:44:53;;;;;;;21.85;4.90;;;;;;;;;;5074987;28;20409;-83
2023/12/28 10:47:20;;;;;;;19.10;4.47;;;;;;;;;;5111345;28;20418;-84
2023/12/28 10:49:47;;;;;;;19.58;4.10;;;;;;;;;;5080233;28;20402;-81
2023/12/28 10:52:14;;;;;;;19.10;4.55;;;;;;;;;;5073987;28;20400;-83
2023/12/28 10:54:47;;;;;;;23.77;4.35;;;;;;;;;;5120829;27;20403;-84
2023/12/28 10:57:27;;;;;;;23.83;4.47;;;;;;;;;;5095887;28;20998;-83
2023/12/28 11:00:15;;;;;;;20.83;4.20;;;;;;;;;;5078184;28;20508;-84
2023/12/28 11:02:52;;;;;;;20.00;4.50;;;;;;;;;;5095438;28;20501;-82
2023/12/28 11:05:22;;;;;;;20.88;4.82;;;;;;;;;;5123480;27;20409;-83
2023/12/28 11:07:48;;;;;;;19.45;4.35;;;;;;;;;;5086925;28;20411;-83
2023/12/28 11:10:14;;;;;;;20.30;4.15;;;;;;;;;;5071545;28;20992;-84
2023/12/28 11:12:43;;;;;;;23.15;4.90;;;;;;;;;;5053857;28;20407;-86
2023/12/28 11:15:11;;;;;;;27.25;5.63;;;;;;;;;;5084320;28;20754;-83
2023/12/28 11:17:38;;;;;;;23.67;4.45;;;;;;;;;;5076564;28;20406;-83
2023/12/28 11:20:07;;;;;;;17.63;4.15;;;;;;;;;;5078368;28;20503;-83
2023/12/28 11:22:33;;;;;;;25.45;5.30;;;;;;;;;;5062078;28;20395;-82
2023/12/28 11:24:59;;;;;;;25.80;5.25;;;;;;;;;;5074818;28;20399;-83
2023/12/28 11:27:34;;;;;;;20.92;4.45;;;;;;;;;;5075365;28;20404;-82
2023/12/28 11:30:00;;;;;;;20.65;4.47;;;;;;;;;;5092032;28;20456;-82
2023/12/28 11:32:36;;;;;;;23.35;4.68;;;;;;;;;;5111372;27;20399;-82
2023/12/28 11:35:09;;;;;;;21.65;4.50;;;;;;;;;;5108777;28;20464;-83
2023/12/28 11:37:41;;;;;;;23.27;5.07;;;;;;;;;;5088258;28;20407;-83
2023/12/28 11:40:13;;;;;;;20.55;4.32;;;;;;;;;;5088637;28;20420;-82
2023/12/28 11:42:57;;;;;;;21.33;4.40;;;;;;;;;;5078402;28;20453;-84
2023/12/28 11:45:24;;;;;;;20.70;4.60;;;;;;;;;;5113544;27;20425;-83
2023/12/28 11:48:03;;;;;;;22.45;5.43;;;;;;;;;;5099704;28;20467;-82
2023/12/28 11:50:29;;;;;;;25.83;4.63;;;;;;;;;;5100093;28;20398;-83
2023/12/28 11:52:59;;;;;;;23.10;4.90;;;;;;;;;;5073499;28;20398;-83
2023/12/28 11:55:25;;;;;;;21.90;5.32;;;;;;;;;;5128298;27;20449;-84
2023/12/28 11:57:52;;;;;;;25.30;5.43;;;;;;;;;;5075491;28;20917;-83
2023/12/28 12:00:20;;;;;;;21.50;4.40;;;;;;;;;;5089775;28;20414;-83
2023/12/28 12:02:46;;;;;;;24.23;5.05;;;;;;;;;;5074215;28;20535;-84
2023/12/28 12:05:12;;;;;;;23.17;5.00;;;;;;;;;;5107882;28;20398;-84
2023/12/28 12:07:39;;;;;;;23.08;4.22;;;;;;;;;;5090778;28;20402;-84
2023/12/28 12:10:06;;;;;;;23.75;4.53;;;;;;;;;;5055900;28;20512;-84
2023/12/28 12:12:32;;;;;;;21.83;5.25;;;;;;;;;;5069703;28;20509;-84
2023/12/28 12:14:58;;;;;;;22.85;4.65;;;;;;;;;;5083571;28;20393;-84
2023/12/28 12:17:24;;;;;;;21.83;4.78;;;;;;;;;;5074518;28;20433;-84
2023/12/28 12:19:55;;;;;;;24.42;4.78;;;;;;;;;;5101308;28;20394;-83
2023/12/28 12:22:21;;;;;;;33.80;6.10;;;;;;;;;;5053716;28;20434;-84
2023/12/28 12:24:49;;;;;;;26.27;5.63;;;;;;;;;;5100959;28;20418;-83
2023/12/28 12:27:15;;;;;;;24.15;5.30;;;;;;;;;;5072299;28;20413;-82
2023/12/28 12:29:41;;;;;;;22.58;4.72;;;;;;;;;;5058154;28;20989;-82
2023/12/28 12:32:07;;;;;;;25.67;5.13;;;;;;;;;;5059335;28;20794;-82
2023/12/28 12:34:33;;;;;;;24.23;4.57;;;;;;;;;;5065594;28;20712;-83
2023/12/28 12:37:00;;;;;;;21.52;4.85;;;;;;;;;;5039377;28;20416;-83
2023/12/28 12:39:26;;;;;;;18.27;4.40;;;;;;;;;;5084783;28;20736;-83
2023/12/28 12:41:52;;;;;;;23.05;4.75;;;;;;;;;;5055357;28;20395;-83
2023/12/28 12:44:22;;;;;;;26.83;5.10;;;;;;;;;;5061800;28;20881;-83
2023/12/28 12:46:48;;;;;;;25.38;5.20;;;;;;;;;;5069502;28;20475;-83
2023/12/28 12:49:19;;;;;;;21.20;5.45;;;;;;;;;;5076399;28;20454;-84
2023/12/28 12:51:46;;;;;;;24.17;4.88;;;;;;;;;;5056291;28;20400;-86
2023/12/28 12:54:12;;;;;;;24.48;4.78;;;;;;;;;;5056014;28;20525;-84
2023/12/28 12:56:41;;;;;;;22.63;4.55;;;;;;;;;;5069385;28;20426;-82
2023/12/28 12:59:13;;;;;;;23.27;4.60;;;;;;;;;;5027489;28;20891;-80
2023/12/28 13:01:39;;;;;;;23.13;4.85;;;;;;;;;;5081418;28;20430;-80
2023/12/28 13:04:07;;;;;;;20.27;4.50;;;;;;;;;;5092592;28;20432;-81
2023/12/28 13:06:33;;;;;;;19.10;4.70;;;;;;;;;;5057594;28;20897;-80
2023/12/28 13:09:06;;;;;;;23.40;4.97;;;;;;;;;;5044566;28;20425;-81
2023/12/28 13:11:32;;;;;;;19.88;4.45;;;;;;;;;;5071697;28;20898;-78
2023/12/28 13:13:59;;;;;;;22.42;4.97;;;;;;;;;;5058056;28;20433;-78
2023/12/28 13:16:25;;;;;;;25.67;4.47;;;;;;;;;;5046761;28;20418;-78
2023/12/28 13:18:54;;;;;;;17.13;4.03;;;;;;;;;;5063963;28;20600;-78
2023/12/28 13:21:23;;;;;;;23.73;4.20;;;;;;;;;;5079401;28;20406;-80
2023/12/28 13:23:49;;;;;;;23.23;5.20;;;;;;;;;;5037799;28;20410;-81
2023/12/28 13:26:15;;;;;;;22.95;5.00;;;;;;;;;;5056541;28;20416;-80
2023/12/28 13:28:42;;;;;;;17.35;4.45;;;;;;;;;;5025823;28;20775;-80
2023/12/28 13:31:08;;;;;;;16.58;4.65;;;;;;;;;;5047069;28;20818;-79
2023/12/28 13:33:44;;;;;;;26.40;5.03;;;;;;;;;;5069778;28;20442;-79
2023/12/28 13:36:10;;;;;;;22.33;4.82;;;;;;;;;;5057612;28;20847;-80
2023/12/28 13:38:37;;;;;;;22.95;5.50;;;;;;;;;;5051620;28;20480;-80
2023/12/28 13:41:03;;;;;;;21.67;4.85;;;;;;;;;;5072685;28;20477;-80
2023/12/28 13:43:29;;;;;;;21.58;4.63;;;;;;;;;;5038471;28;20391;-81
2023/12/28 13:45:56;;;;;;;26.00;5.60;;;;;;;;;;5088705;28;20422;-81
2023/12/28 13:48:22;;;;;;;23.95;4.55;;;;;;;;;;5069591;28;20414;-80
2023/12/28 13:51:15;;;;;;;22.30;4.70;;;;;;;;;;5083819;28;20415;-78
2023/12/28 13:54:03;;;;;;;21.30;4.45;;;;;;;;;;5051820;28;20409;-78
2023/12/28 13:56:41;;;;;;;25.63;4.93;;;;;;;;;;5039423;28;20776;-77
2023/12/28 13:59:15;;;;;;;22.05;4.80;;;;;;;;;;5028342;28;20487;-77
2023/12/28 14:01:42;;;;;;;18.65;4.63;;;;;;;;;;5010909;28;20407;-79
2023/12/28 14:04:15;;;;;;;17.17;4.50;;;;;;;;;;4995458;28;20487;-77
2023/12/28 14:06:44;;;;;;;22.75;5.00;;;;;;;;;;4993020;28;20412;-77
2023/12/28 14:09:20;;;;;;;19.08;4.25;;;;;;;;;;5016197;28;20404;-77
2023/12/28 14:11:47;;;;;;;19.67;4.68;;;;;;;;;;4987470;28;20479;-78
2023/12/28 14:14:13;;;;;;;22.20;4.50;;;;;;;;;;4976090;28;20407;-76
2023/12/28 14:16:40;;;;;;;20.60;4.63;;;;;;;;;;5004184;28;20768;-77
2023/12/28 14:19:10;;;;;;;19.83;4.40;;;;;;;;;;5036525;28;20407;-78
2023/12/28 14:21:38;;;;;;;21.37;4.07;;;;;;;;;;4996560;28;20438;-80
2023/12/28 14:24:06;;;;;;;23.70;4.28;;;;;;;;;;5025474;28;20451;-80
2023/12/28 14:26:44;;;;;;;23.30;4.50;;;;;;;;;;5010433;28;20894;-77
2023/12/28 14:29:15;;;;;;;22.75;5.10;;;;;;;;;;5040704;28;20401;-78
2023/12/28 14:31:43;;;;;;;21.63;5.03;;;;;;;;;;5005014;28;20434;-78